Terminal Aerodrome Forecast
Issued by NWS North Platte, NE

Home | Current Version | Previous Version | Graphics & Text | Print | Product List | Glossary On
Versions: 1 2 3 4 5 6 7 8 9 10 11 12 13
618
FTUS43 KLBF 021736
TAFVTN
TAF
KVTN 021736Z 0218/0318 VRB04KT P6SM SCT110
     FM030900 21007KT P6SM OVC100=

USA.gov is the U.S. government's official web portal to all federal, state and local government web resources and services.